Time;durP1;ratioP1;P1;durP2;ratioP2;P2;SDS_P1;SDS_P2;PMS_P1;PMS_P2;Temp;Humidity;BMP_temperature;BMP_pressure;BME280_temperature;BME280_humidity;BME280_pressure;Samples;Min_cycle;Max_cycle;Signal;HPM_P1;HPM_P2
2021/11/19 00:02:01;;;;;;;61.17;32.50;;;;;;;9.01;100.00;102790.88;5125497;27;20115;-69
2021/11/19 00:04:29;;;;;;;59.25;33.40;;;;;;;9.00;100.00;102796.97;5123782;27;20059;-71
2021/11/19 00:06:55;;;;;;;59.88;31.92;;;;;;;9.08;100.00;102786.72;5124237;27;20031;-71
2021/11/19 00:09:22;;;;;;;62.90;34.45;;;;;;;9.04;100.00;102791.00;5124652;27;20045;-69
2021/11/19 00:11:49;;;;;;;59.80;33.53;;;;;;;9.06;100.00;102791.06;5123368;27;20023;-68
2021/11/19 00:14:16;;;;;;;61.97;35.65;;;;;;;9.06;100.00;102789.31;5125613;27;20027;-69
2021/11/19 00:16:44;;;;;;;61.47;35.63;;;;;;;9.03;100.00;102785.66;5129157;27;20043;-74
2021/11/19 00:19:10;;;;;;;60.25;33.35;;;;;;;9.07;100.00;102784.91;5135660;27;20032;-75
2021/11/19 00:21:37;;;;;;;64.88;36.35;;;;;;;9.03;100.00;102780.38;5122289;27;20060;-75
2021/11/19 00:24:03;;;;;;;66.03;36.47;;;;;;;8.99;100.00;102784.59;5125146;27;20023;-74
2021/11/19 00:26:31;;;;;;;68.30;37.08;;;;;;;8.99;100.00;102781.97;5123266;27;20019;-73
2021/11/19 00:28:57;;;;;;;66.57;36.55;;;;;;;9.01;100.00;102782.94;5124130;27;20035;-75
2021/11/19 00:31:24;;;;;;;69.30;37.95;;;;;;;8.99;100.00;102776.69;5124102;27;20069;-76
2021/11/19 00:33:50;;;;;;;68.72;37.88;;;;;;;9.01;100.00;102777.69;5123008;27;20459;-75
2021/11/19 00:36:18;;;;;;;63.63;36.78;;;;;;;9.02;100.00;102775.94;5124897;27;20072;-74
2021/11/19 00:38:45;;;;;;;63.20;37.63;;;;;;;9.03;100.00;102781.25;5122513;27;20039;-75
2021/11/19 00:41:12;;;;;;;68.60;37.63;;;;;;;9.00;100.00;102786.41;5125613;27;20031;-73
2021/11/19 00:43:39;;;;;;;66.38;36.95;;;;;;;8.99;100.00;102776.69;5117613;27;20024;-75
2021/11/19 00:46:05;;;;;;;74.35;39.33;;;;;;;8.99;100.00;102778.44;5125099;27;20037;-75
2021/11/19 00:48:32;;;;;;;70.70;39.67;;;;;;;9.02;100.00;102778.56;5122112;27;20031;-75
2021/11/19 00:51:08;;;;;;;69.93;38.15;;;;;;;9.00;100.00;102778.50;5118397;27;20364;-75
2021/11/19 00:53:36;;;;;;;72.60;39.90;;;;;;;8.98;100.00;102780.16;5120824;27;20118;-76
2021/11/19 00:56:02;;;;;;;71.03;38.85;;;;;;;8.98;100.00;102772.25;5123038;27;20029;-75
2021/11/19 00:58:28;;;;;;;75.43;41.00;;;;;;;8.98;100.00;102769.59;5103538;27;20035;-73
2021/11/19 01:00:57;;;;;;;73.85;41.95;;;;;;;8.99;100.00;102774.06;5124941;27;20020;-75
2021/11/19 01:03:23;;;;;;;78.30;43.33;;;;;;;8.99;100.00;102766.13;5121814;28;20032;-75
2021/11/19 01:05:50;;;;;;;70.15;41.80;;;;;;;9.00;100.00;102767.94;5125395;27;20027;-75
2021/11/19 01:08:16;;;;;;;75.65;41.50;;;;;;;8.98;100.00;102771.34;5121554;28;20075;-72
2021/11/19 01:10:43;;;;;;;80.47;44.97;;;;;;;8.98;100.00;102768.72;5124476;28;20035;-73
2021/11/19 01:13:09;;;;;;;73.88;44.20;;;;;;;9.01;100.00;102776.75;5122489;28;20500;-73
2021/11/19 01:15:39;;;;;;;82.88;44.33;;;;;;;8.97;100.00;102775.75;5123680;28;20374;-75
2021/11/19 01:18:16;;;;;;;89.57;46.40;;;;;;;8.98;100.00;102782.78;5123178;28;20064;-75
2021/11/19 01:20:59;;;;;;;84.85;46.03;;;;;;;8.96;100.00;102788.88;5124338;28;20035;-75
2021/11/19 01:23:27;;;;;;;85.18;46.80;;;;;;;8.96;100.00;102788.88;5119058;28;20538;-68
2021/11/19 01:25:57;;;;;;;89.05;46.53;;;;;;;8.94;100.00;102791.44;5124633;28;20027;-68
2021/11/19 01:28:23;;;;;;;83.00;46.13;;;;;;;8.97;100.00;102802.13;5122082;28;20034;-68
2021/11/19 01:30:54;;;;;;;82.57;45.55;;;;;;;8.96;100.00;102789.75;5124910;28;20534;-67
2021/11/19 01:33:20;;;;;;;82.30;46.30;;;;;;;8.96;100.00;102789.75;5117714;28;20369;-67
2021/11/19 01:35:45;;;;;;;87.22;46.25;;;;;;;8.97;100.00;102782.72;5124918;28;20020;-68
2021/11/19 01:38:11;;;;;;;84.90;46.92;;;;;;;8.98;100.00;102793.34;5121913;28;20036;-68
2021/11/19 01:40:40;;;;;;;83.53;46.25;;;;;;;8.96;100.00;102808.22;5123390;28;20110;-68
2021/11/19 01:43:10;;;;;;;96.80;48.33;;;;;;;8.96;100.00;102805.59;5122729;28;20526;-68
2021/11/19 01:45:40;;;;;;;88.10;46.72;;;;;;;8.96;100.00;102813.50;5123430;28;20103;-68
2021/11/19 01:48:09;;;;;;;89.10;47.38;;;;;;;8.99;100.00;102804.81;5122487;28;20043;-68
2021/11/19 01:50:47;;;;;;;87.32;47.08;;;;;;;8.97;100.00;102794.22;5122996;28;20106;-69
2021/11/19 01:53:21;;;;;;;85.65;45.90;;;;;;;8.99;100.00;102791.63;5121633;28;20069;-68
2021/11/19 01:56:06;;;;;;;87.15;47.53;;;;;;;8.99;100.00;102795.16;5117471;28;20431;-68
2021/11/19 01:58:43;;;;;;;84.45;46.42;;;;;;;9.04;100.00;102782.16;5120387;28;20024;-68
2021/11/19 02:01:37;;;;;;;79.68;44.53;;;;;;;9.10;100.00;102787.72;5124868;27;20023;-69
2021/11/19 02:04:11;;;;;;;83.90;46.67;;;;;;;9.05;100.00;102776.94;5121589;27;20501;-68
2021/11/19 02:06:48;;;;;;;84.57;44.40;;;;;;;9.07;100.00;102777.00;5126068;27;20431;-68
2021/11/19 02:09:39;;;;;;;89.65;45.95;;;;;;;9.08;100.00;102774.41;5127749;27;20027;-75
2021/11/19 02:12:28;;;;;;;84.88;45.13;;;;;;;9.06;100.00;102776.13;5125145;27;20092;-73
2021/11/19 02:15:15;;;;;;;89.50;48.42;;;;;;;9.08;100.00;102776.16;5121666;27;20092;-74
2021/11/19 02:17:44;;;;;;;88.07;47.15;;;;;;;9.10;100.00;102768.31;5125888;27;20467;-73
2021/11/19 02:20:14;;;;;;;88.50;47.67;;;;;;;9.13;100.00;102776.34;5108807;27;20035;-74
2021/11/19 02:22:46;;;;;;;85.97;45.72;;;;;;;9.12;100.00;102771.94;5125461;27;20484;-75
2021/11/19 02:25:19;;;;;;;85.45;46.60;;;;;;;9.16;100.00;102771.19;5127539;27;20117;-75
2021/11/19 02:27:54;;;;;;;84.60;46.08;;;;;;;9.17;100.00;102773.00;5124624;27;20088;-75
2021/11/19 02:30:23;;;;;;;84.35;45.28;;;;;;;9.17;100.00;102775.66;5120653;27;20023;-73
2021/11/19 02:32:52;;;;;;;90.15;47.50;;;;;;;9.16;100.00;102763.28;5120338;27;20027;-73
2021/11/19 02:35:23;;;;;;;85.70;46.53;;;;;;;9.17;100.00;102768.63;5120395;27;20020;-73
2021/11/19 02:37:53;;;;;;;87.80;46.60;;;;;;;9.17;100.00;102768.63;5120356;27;20031;-73
2021/11/19 02:40:25;;;;;;;93.60;47.53;;;;;;;9.21;100.00;102757.34;5127642;27;20394;-74
2021/11/19 02:42:55;;;;;;;88.17;46.27;;;;;;;9.20;100.00;102766.13;5120654;27;20055;-73
2021/11/19 02:45:24;;;;;;;83.50;43.33;;;;;;;9.20;100.00;102760.88;5120498;27;20023;-74
2021/11/19 02:47:49;;;;;;;83.60;45.08;;;;;;;9.22;100.00;102763.56;5120077;27;20118;-73
2021/11/19 02:50:19;;;;;;;85.68;45.83;;;;;;;9.22;100.00;102766.19;5127194;27;20054;-73
2021/11/19 02:52:46;;;;;;;84.80;46.05;;;;;;;9.21;100.00;102764.38;5124511;27;20098;-74
2021/11/19 02:55:35;;;;;;;90.20;47.00;;;;;;;9.21;100.00;102769.66;5126657;27;20031;-74
2021/11/19 02:58:04;;;;;;;80.18;44.83;;;;;;;9.26;100.00;102760.19;5122857;27;20040;-73
2021/11/19 03:00:47;;;;;;;84.10;45.28;;;;;;;9.23;100.00;102767.97;5126007;27;20043;-75
2021/11/19 03:03:12;;;;;;;;;;;;;;;9.29;100.00;102764.69;5127001;27;20470;-68
2021/11/19 03:05:38;;;;;;;83.13;46.17;;;;;;;9.25;100.00;102761.03;5125088;27;19914;-69
2021/11/19 03:08:03;;;;;;;87.38;47.25;;;;;;;9.22;100.00;102761.81;5125351;27;20031;-72
2021/11/19 03:10:57;;;;;;;80.85;45.78;;;;;;;9.23;100.00;102765.34;5126236;27;20027;-69
2021/11/19 03:13:26;;;;;;;88.65;46.70;;;;;;;9.21;100.00;102769.66;5119596;27;20084;-68
2021/11/19 03:15:53;;;;;;;80.28;43.63;;;;;;;9.24;100.00;102761.88;5126988;27;20061;-68
2021/11/19 03:18:22;;;;;;;76.47;43.42;;;;;;;9.21;100.00;102757.34;5119881;27;20048;-70
2021/11/19 03:20:50;;;;;;;79.05;44.15;;;;;;;9.21;100.00;102748.56;5119307;27;20467;-69
2021/11/19 03:23:16;;;;;;;85.07;45.92;;;;;;;9.21;100.00;102753.84;5126540;27;20470;-69
2021/11/19 03:25:43;;;;;;;83.45;44.45;;;;;;;9.23;100.00;102749.50;5124284;27;20092;-70
2021/11/19 03:28:11;;;;;;;82.13;43.65;;;;;;;9.22;100.00;102750.38;5125463;27;20035;-69
2021/11/19 03:30:41;;;;;;;81.22;43.72;;;;;;;9.22;100.00;102747.72;5124661;27;20090;-69
2021/11/19 03:33:08;;;;;;;76.65;44.15;;;;;;;9.21;100.00;102744.16;5125161;27;20020;-70
2021/11/19 03:35:34;;;;;;;81.82;45.40;;;;;;;9.21;100.00;102746.81;5125301;27;20023;-69
2021/11/19 03:38:00;;;;;;;76.30;43.50;;;;;;;9.22;100.00;102753.00;5123982;27;20419;-69
2021/11/19 03:40:30;;;;;;;74.35;40.60;;;;;;;9.24;100.00;102759.22;5126277;27;20060;-67
2021/11/19 03:42:59;;;;;;;74.97;42.25;;;;;;;9.27;100.00;102750.53;5123931;27;20110;-66
2021/11/19 03:45:29;;;;;;;71.95;41.63;;;;;;;9.25;100.00;102755.75;5109630;27;20385;-67
2021/11/19 03:47:55;;;;;;;74.53;43.28;;;;;;;9.25;100.00;102750.47;5136434;27;20032;-67
2021/11/19 03:50:39;;;;;;;73.25;42.78;;;;;;;9.24;100.00;102749.56;5126652;27;20545;-66
2021/11/19 03:53:05;;;;;;;74.90;41.67;;;;;;;9.27;100.00;102746.16;5123261;27;20031;-66
2021/11/19 03:55:34;;;;;;;72.13;42.88;;;;;;;9.25;100.00;102743.44;5125016;27;20379;-66
2021/11/19 03:57:59;;;;;;;73.78;41.17;;;;;;;9.33;100.00;102753.41;5123519;27;20072;-66
2021/11/19 04:00:55;;;;;;;73.18;41.85;;;;;;;9.35;100.00;102757.94;5125606;27;20047;-66
2021/11/19 04:03:22;;;;;;;69.47;42.88;;;;;;;9.31;100.00;102753.34;5115991;27;20096;-66
2021/11/19 04:05:49;;;;;;;71.05;42.03;;;;;;;9.31;100.00;102749.84;5125886;27;20469;-66
2021/11/19 04:08:15;;;;;;;63.60;39.63;;;;;;;9.36;100.00;102748.25;5122801;27;20032;-66
2021/11/19 04:10:42;;;;;;;71.10;42.67;;;;;;;9.29;100.00;102752.41;5124974;27;20478;-66
2021/11/19 04:13:08;;;;;;;67.00;40.42;;;;;;;9.30;100.00;102750.66;5123661;27;20059;-66
2021/11/19 04:15:39;;;;;;;73.35;42.20;;;;;;;9.33;100.00;102758.69;5123781;27;20030;-66
2021/11/19 04:18:04;;;;;;;71.70;42.40;;;;;;;9.31;100.00;102757.75;5124216;27;20469;-66
2021/11/19 04:20:30;;;;;;;70.53;41.15;;;;;;;9.34;100.00;102757.88;5123417;27;20065;-68
2021/11/19 04:22:56;;;;;;;70.57;43.38;;;;;;;9.34;100.00;102755.22;5124974;27;20077;-66
2021/11/19 04:25:23;;;;;;;73.22;41.83;;;;;;;9.32;100.00;102762.16;5121681;27;20028;-66
2021/11/19 04:27:50;;;;;;;74.40;43.95;;;;;;;9.32;100.00;102756.88;5117859;27;20038;-67
2021/11/19 04:30:24;;;;;;;67.47;41.70;;;;;;;9.33;100.00;102759.59;5125163;27;20374;-66
2021/11/19 04:32:50;;;;;;;68.95;41.60;;;;;;;9.36;100.00;102762.38;5118075;27;20027;-67
2021/11/19 04:35:16;;;;;;;68.07;42.08;;;;;;;9.34;100.00;102755.22;5125346;27;20434;-73
2021/11/19 04:37:42;;;;;;;66.00;40.80;;;;;;;9.36;100.00;102756.19;5122850;27;20019;-72
2021/11/19 04:40:09;;;;;;;65.25;41.10;;;;;;;9.34;100.00;102765.78;5123757;27;20029;-73
2021/11/19 04:42:36;;;;;;;63.17;39.63;;;;;;;9.37;100.00;102750.06;5122111;27;20505;-73
2021/11/19 04:45:01;;;;;;;66.47;41.03;;;;;;;9.40;100.00;102744.91;5117675;27;20132;-74
2021/11/19 04:47:27;;;;;;;64.07;39.90;;;;;;;9.36;100.00;102743.91;5124856;27;20114;-75
2021/11/19 04:49:52;;;;;;;67.97;40.75;;;;;;;9.36;100.00;102749.19;5122975;27;20065;-75
2021/11/19 04:52:17;;;;;;;63.00;38.75;;;;;;;9.38;100.00;102749.25;5123838;27;20031;-74
2021/11/19 04:54:43;;;;;;;67.93;40.55;;;;;;;9.35;100.00;102760.56;5124059;27;20027;-75
2021/11/19 04:57:09;;;;;;;67.78;41.60;;;;;;;9.36;100.00;102762.38;5122644;27;20466;-74
2021/11/19 04:59:35;;;;;;;63.50;40.65;;;;;;;9.37;100.00;102764.16;5124840;27;20043;-75
2021/11/19 05:02:07;;;;;;;66.43;39.42;;;;;;;9.38;100.00;102768.59;5122037;27;20050;-73
2021/11/19 05:04:34;;;;;;;64.97;39.83;;;;;;;9.39;100.00;102764.22;5118270;28;20523;-73
2021/11/19 05:07:00;;;;;;;67.15;41.13;;;;;;;9.39;100.00;102758.94;5117751;28;20137;-73
2021/11/19 05:09:29;;;;;;;66.65;40.80;;;;;;;9.38;100.00;102759.78;5124697;28;20406;-70
2021/11/19 05:12:09;;;;;;;64.18;39.75;;;;;;;9.38;100.00;102765.06;5121953;28;20019;-73
2021/11/19 05:14:39;;;;;;;69.72;41.58;;;;;;;9.39;100.00;102766.84;5118422;28;20039;-74
2021/11/19 05:17:07;;;;;;;64.63;40.28;;;;;;;9.37;100.00;102764.16;5125015;28;20026;-75
2021/11/19 05:19:33;;;;;;;67.05;39.63;;;;;;;9.37;100.00;102768.53;5121781;28;20100;-74
2021/11/19 05:21:58;;;;;;;64.53;39.72;;;;;;;9.35;100.00;102752.66;5117689;28;20055;-73
2021/11/19 05:24:23;;;;;;;67.80;40.00;;;;;;;9.39;100.00;102765.13;5124124;28;20080;-73
2021/11/19 05:26:49;;;;;;;65.82;41.58;;;;;;;9.38;100.00;102758.03;5122873;28;20110;-74
2021/11/19 05:29:17;;;;;;;66.15;40.70;;;;;;;9.39;100.00;102778.34;5122939;28;20020;-74
2021/11/19 05:31:43;;;;;;;63.25;39.25;;;;;;;9.41;100.00;102765.19;5123616;28;20015;-71
2021/11/19 05:34:11;;;;;;;66.40;40.55;;;;;;;9.41;100.00;102763.44;5122231;28;20095;-69
2021/11/19 05:36:37;;;;;;;64.80;41.35;;;;;;;9.40;100.00;102766.03;5128012;27;20019;-70
2021/11/19 05:39:03;;;;;;;68.22;41.72;;;;;;;9.39;100.00;102766.84;5125161;27;20023;-70
2021/11/19 05:41:29;;;;;;;66.05;40.55;;;;;;;9.38;100.00;102767.72;5121658;27;20390;-68
2021/11/19 05:43:56;;;;;;;71.25;42.47;;;;;;;9.37;100.00;102772.06;5128148;27;20048;-68
2021/11/19 05:46:24;;;;;;;70.65;42.45;;;;;;;9.32;100.00;102773.66;5125922;27;20023;-70
2021/11/19 05:48:51;;;;;;;67.88;40.63;;;;;;;9.31;100.00;102769.19;5127543;27;20035;-69
2021/11/19 05:51:17;;;;;;;74.75;42.53;;;;;;;9.27;100.00;102772.53;5127203;27;20027;-74
2021/11/19 05:53:45;;;;;;;83.93;46.28;;;;;;;9.25;100.00;102772.47;5126541;27;20019;-69
2021/11/19 05:56:12;;;;;;;73.68;43.08;;;;;;;9.27;100.00;102780.47;5127636;27;20098;-68
2021/11/19 05:58:38;;;;;;;78.43;43.90;;;;;;;9.27;100.00;102769.00;5126247;27;20016;-73
2021/11/19 06:01:08;;;;;;;79.28;44.25;;;;;;;9.30;100.00;102764.75;5128552;27;20031;-73
2021/11/19 06:03:34;;;;;;;77.55;44.22;;;;;;;9.30;100.00;102769.13;5124902;27;20030;-73
2021/11/19 06:06:01;;;;;;;88.35;47.45;;;;;;;9.31;100.00;102766.56;5121036;27;20027;-68
2021/11/19 06:08:27;;;;;;;77.78;43.72;;;;;;;9.32;100.00;102763.09;5128069;27;20027;-70
2021/11/19 06:10:58;;;;;;;81.25;45.08;;;;;;;9.33;100.00;102770.13;5125552;27;20030;-71
2021/11/19 06:13:29;;;;;;;84.90;46.97;;;;;;;9.35;100.00;102773.75;5128067;27;20038;-68
2021/11/19 06:16:00;;;;;;;80.88;45.47;;;;;;;9.36;100.00;102772.94;5125406;27;20035;-68
2021/11/19 06:18:31;;;;;;;85.43;47.67;;;;;;;9.38;100.00;102779.16;5130463;27;20040;-71
2021/11/19 06:21:01;;;;;;;80.70;46.10;;;;;;;9.37;100.00;102780.00;5137554;27;20020;-68
2021/11/19 06:23:32;;;;;;;75.35;44.13;;;;;;;9.39;100.00;102775.69;5144190;27;20078;-68
2021/11/19 06:26:00;;;;;;;79.20;45.47;;;;;;;9.41;100.00;102776.63;5140208;27;20118;-68
2021/11/19 06:28:34;;;;;;;75.43;42.90;;;;;;;9.42;100.00;102786.38;5142143;27;20023;-68
2021/11/19 06:31:00;;;;;;;80.45;44.17;;;;;;;9.43;100.00;102782.88;5113020;27;20019;-69
2021/11/19 06:33:27;;;;;;;85.25;47.17;;;;;;;9.46;100.00;102791.78;5117006;27;20039;-69
2021/11/19 06:35:52;;;;;;;83.57;47.90;;;;;;;9.45;100.00;102789.97;5115341;27;20031;-67
2021/11/19 06:38:19;;;;;;;85.32;46.50;;;;;;;9.45;100.00;102793.53;5114992;27;20019;-69
2021/11/19 06:40:44;;;;;;;81.78;46.45;;;;;;;9.43;100.00;102777.59;5113602;28;20374;-67
2021/11/19 06:43:10;;;;;;;82.80;47.40;;;;;;;9.48;100.00;102790.06;5118858;27;20095;-68
2021/11/19 06:45:35;;;;;;;81.38;47.47;;;;;;;9.45;100.00;102790.88;5115826;27;20050;-68
2021/11/19 06:48:05;;;;;;;84.80;47.92;;;;;;;9.50;100.00;102789.31;5094186;28;20521;-69
2021/11/19 06:50:32;;;;;;;81.03;45.95;;;;;;;9.48;100.00;102787.44;5117666;27;20059;-68
2021/11/19 06:52:58;;;;;;;79.45;45.20;;;;;;;9.51;100.00;102801.69;5114628;27;20482;-68
2021/11/19 06:55:23;;;;;;;81.55;47.40;;;;;;;9.49;100.00;102805.97;5117484;27;20027;-68
2021/11/19 06:57:49;;;;;;;89.35;47.28;;;;;;;9.50;100.00;102798.97;5116219;27;20035;-68
2021/11/19 07:00:28;;;;;;;81.40;45.42;;;;;;;9.53;100.00;102807.91;5116988;27;20043;-69
2021/11/19 07:02:54;;;;;;;81.55;46.53;;;;;;;9.50;100.00;102805.16;5116060;27;20040;-67
2021/11/19 07:05:20;;;;;;;89.57;50.20;;;;;;;9.49;100.00;102799.81;5117008;27;20034;-69
2021/11/19 07:07:46;;;;;;;86.78;47.08;;;;;;;9.51;100.00;102813.97;5114000;27;20118;-68
2021/11/19 07:10:12;;;;;;;88.20;47.80;;;;;;;9.49;100.00;102813.00;5118069;27;20047;-70
2021/11/19 07:12:37;;;;;;;81.07;45.47;;;;;;;9.52;100.00;102815.75;5118171;27;20079;-67
2021/11/19 07:15:06;;;;;;;86.45;47.60;;;;;;;9.53;100.00;102807.91;5120683;27;20051;-69
2021/11/19 07:17:32;;;;;;;83.60;46.47;;;;;;;9.54;100.00;102807.06;5121681;27;20041;-72
2021/11/19 07:19:58;;;;;;;80.82;44.92;;;;;;;9.57;100.00;102814.22;5118396;27;20504;-68
2021/11/19 07:22:23;;;;;;;78.65;44.67;;;;;;;9.57;100.00;102812.47;5117874;27;20424;-69
2021/11/19 07:24:52;;;;;;;79.13;45.95;;;;;;;9.62;100.00;102811.75;5119563;27;20023;-68
2021/11/19 07:27:18;;;;;;;80.40;45.42;;;;;;;9.57;100.00;102820.41;5115752;27;20110;-67
2021/11/19 07:29:43;;;;;;;88.32;49.10;;;;;;;9.58;100.00;102829.22;5115587;27;20036;-65
2021/11/19 07:32:09;;;;;;;82.47;46.60;;;;;;;9.57;100.00;102825.69;5120978;27;20035;-70
2021/11/19 07:34:34;;;;;;;86.38;47.20;;;;;;;9.57;100.00;102827.44;5115608;27;20019;-67
2021/11/19 07:36:59;;;;;;;83.43;45.75;;;;;;;9.60;100.00;102833.72;5115718;27;20027;-67
2021/11/19 07:39:25;;;;;;;89.18;47.83;;;;;;;9.61;100.00;102832.00;5120978;27;20027;-66
2021/11/19 07:41:50;;;;;;;83.43;46.20;;;;;;;9.65;100.00;102838.28;5115200;27;20160;-64
2021/11/19 07:44:16;;;;;;;86.05;47.60;;;;;;;9.62;100.00;102844.34;5097645;28;20103;-67
2021/11/19 07:46:41;;;;;;;85.95;47.42;;;;;;;9.62;100.00;102846.09;5112145;27;20059;-67
2021/11/19 07:49:07;;;;;;;85.25;46.78;;;;;;;9.64;100.00;102845.31;5098465;27;20031;-67
2021/11/19 07:51:35;;;;;;;87.22;49.22;;;;;;;9.66;100.00;102846.28;5118290;27;20062;-67
2021/11/19 07:54:03;;;;;;;83.85;47.38;;;;;;;9.70;100.00;102848.19;5114696;27;20381;-64
2021/11/19 07:56:30;;;;;;;85.28;47.90;;;;;;;9.68;100.00;102847.22;5114437;27;20114;-65
2021/11/19 07:59:08;;;;;;;87.65;47.42;;;;;;;9.70;100.00;102850.84;5117373;27;20043;-67
2021/11/19 08:01:35;;;;;;;84.07;46.63;;;;;;;9.73;100.00;102853.59;5114917;27;20154;-66
2021/11/19 08:04:00;;;;;;;82.75;44.90;;;;;;;9.75;100.00;102851.91;5115943;27;20042;-66
2021/11/19 08:06:28;;;;;;;91.35;48.22;;;;;;;9.80;100.00;102857.41;5117413;27;20114;-68
2021/11/19 08:08:54;;;;;;;88.72;48.60;;;;;;;9.81;100.00;102860.94;5113620;27;20114;-66
2021/11/19 08:11:20;;;;;;;88.97;48.15;;;;;;;9.84;100.00;102858.41;5116220;27;20070;-67
2021/11/19 08:13:46;;;;;;;87.13;48.42;;;;;;;9.86;100.00;102859.34;5115438;27;20055;-66
2021/11/19 08:16:13;;;;;;;85.78;46.95;;;;;;;9.89;100.00;102859.50;5113121;27;20062;-66
2021/11/19 08:18:45;;;;;;;84.32;45.38;;;;;;;9.97;100.00;102863.31;5116178;27;20047;-65
2021/11/19 08:21:11;;;;;;;86.22;47.15;;;;;;;9.90;100.00;102858.63;5114953;27;20494;-66
2021/11/19 08:23:40;;;;;;;88.10;48.95;;;;;;;9.92;100.00;102868.44;5116050;27;20045;-67
2021/11/19 08:26:30;;;;;;;81.22;46.72;;;;;;;9.94;100.00;102865.84;5113853;27;20043;-69
2021/11/19 08:28:57;;;;;;;86.90;49.17;;;;;;;9.94;100.00;102861.44;5116768;27;20054;-71
2021/11/19 08:31:25;;;;;;;86.18;48.08;;;;;;;9.95;100.00;102872.94;5111455;27;20382;-68
2021/11/19 08:33:52;;;;;;;93.38;51.05;;;;;;;9.94;100.00;102865.84;5116257;27;20095;-69
2021/11/19 08:36:20;;;;;;;88.90;48.35;;;;;;;9.95;100.00;102870.31;5114423;27;20032;-69
2021/11/19 08:38:46;;;;;;;86.57;47.63;;;;;;;9.98;100.00;102869.53;5112756;27;20489;-72
2021/11/19 08:41:13;;;;;;;84.15;46.03;;;;;;;9.99;100.00;102863.38;5110263;28;20038;-70
2021/11/19 08:43:44;;;;;;;88.25;48.10;;;;;;;9.98;100.00;102865.13;5116186;27;20036;-73
2021/11/19 08:46:12;;;;;;;80.78;45.22;;;;;;;10.02;100.00;102863.50;5119767;27;20053;-67
2021/11/19 08:48:39;;;;;;;83.13;45.88;;;;;;;10.06;100.00;102861.06;5122890;27;20023;-72
2021/11/19 08:51:15;;;;;;;85.15;45.53;;;;;;;10.08;100.00;102863.75;5123109;27;20355;-70
2021/11/19 08:53:40;;;;;;;84.45;45.72;;;;;;;10.15;100.00;102864.88;5104446;27;20493;-72
2021/11/19 08:56:07;;;;;;;78.30;44.25;;;;;;;10.18;100.00;102860.63;5122955;27;20059;-70
2021/11/19 08:58:38;;;;;;;71.82;42.80;;;;;;;10.21;100.00;102866.03;5124249;27;20359;-67
2021/11/19 09:01:06;;;;;;;73.28;42.70;;;;;;;10.25;100.00;102867.03;5122874;27;20012;-67
2021/11/19 09:03:32;;;;;;;75.60;44.58;;;;;;;10.28;100.00;102859.19;5125060;27;20085;-66
2021/11/19 09:05:58;;;;;;;70.03;41.28;;;;;;;10.31;100.00;102867.28;5123136;27;20028;-73
2021/11/19 09:08:26;;;;;;;75.25;44.55;;;;;;;10.37;100.00;102863.97;5126262;28;20070;-68
2021/11/19 09:10:54;;;;;;;72.70;41.83;;;;;;;10.46;100.00;102859.03;5117540;27;20474;-67
2021/11/19 09:13:20;;;;;;;68.47;41.30;;;;;;;10.48;100.00;102867.03;5125726;28;20023;-68
2021/11/19 09:15:46;;;;;;;74.55;43.33;;;;;;;10.44;100.00;102864.28;5124407;28;20038;-66
2021/11/19 09:18:44;;;;;;;70.20;42.00;;;;;;;10.48;100.00;102859.09;5128136;28;20038;-67
2021/11/19 09:21:18;;;;;;;66.35;41.45;;;;;;;10.45;100.00;102867.81;5018868;28;20061;-67
2021/11/19 09:23:50;;;;;;;68.80;39.95;;;;;;;10.43;100.00;102865.09;5021931;28;20031;-66
2021/11/19 09:26:20;;;;;;;66.07;41.45;;;;;;;10.40;100.00;102872.94;5014519;28;20034;-65
2021/11/19 09:28:49;;;;;;;68.88;41.83;;;;;;;10.42;100.00;102867.69;5018053;28;20030;-65
2021/11/19 09:31:18;;;;;;;72.90;41.28;;;;;;;10.43;100.00;102867.75;5017586;28;20057;-67
2021/11/19 09:33:46;;;;;;;72.30;42.80;;;;;;;10.48;100.00;102869.66;5023872;28;20112;-65
2021/11/19 09:36:11;;;;;;;67.03;41.90;;;;;;;10.50;100.00;102871.53;5022126;28;20477;-68
2021/11/19 09:38:37;;;;;;;73.30;41.63;;;;;;;10.54;100.00;102876.09;5013445;28;20030;-65
2021/11/19 09:41:16;;;;;;;69.10;41.65;;;;;;;10.65;100.00;102881.75;5014211;28;20033;-68
2021/11/19 09:44:06;;;;;;;73.63;43.90;;;;;;;10.76;100.00;102877.78;5008827;28;20564;-64
2021/11/19 09:46:50;;;;;;;65.30;40.15;;;;;;;10.82;100.00;102877.97;5009540;28;20117;-64
2021/11/19 09:49:24;;;;;;;69.20;41.45;;;;;;;10.92;100.00;102886.22;5008596;28;20026;-65
2021/11/19 09:52:26;;;;;;;65.07;41.55;;;;;;;10.93;100.00;102878.34;5011971;28;20053;-66
2021/11/19 09:55:25;;;;;;;63.13;39.55;;;;;;;11.00;100.00;102882.13;5010727;28;20133;-65
2021/11/19 09:57:56;;;;;;;63.33;39.25;;;;;;;11.25;100.00;102878.56;5064483;28;20074;-66
2021/11/19 10:00:31;;;;;;;64.20;40.53;;;;;;;11.42;100.00;102875.59;5110900;28;20087;-65
2021/11/19 10:03:29;;;;;;;59.83;38.85;;;;;;;11.81;100.00;102885.66;5114406;28;20436;-66
2021/11/19 10:06:02;;;;;;;54.65;36.45;;;;;;;12.26;100.00;102884.41;5092521;28;20032;-69
2021/11/19 10:08:34;;;;;;;53.65;36.33;;;;;;;12.34;100.00;102891.75;5075851;28;20046;-67
2021/11/19 10:11:09;;;;;;;50.97;34.67;;;;;;;12.44;100.00;102874.34;5112168;28;20027;-68
2021/11/19 10:14:06;;;;;;;49.10;31.75;;;;;;;12.78;100.00;102880.59;5111262;28;20027;-68
2021/11/19 10:16:31;;;;;;;48.78;33.25;;;;;;;13.02;100.00;102872.41;5094166;28;20031;-68
2021/11/19 10:19:13;;;;;;;48.20;32.08;;;;;;;13.07;100.00;102873.41;5117115;28;20035;-68
2021/11/19 10:22:12;;;;;;;46.00;31.45;;;;;;;13.24;99.89;102876.53;5111069;28;20560;-68
2021/11/19 10:24:44;;;;;;;44.08;30.73;;;;;;;13.36;95.43;102875.06;5118738;27;20027;-68
2021/11/19 10:27:14;;;;;;;46.63;30.77;;;;;;;13.89;92.54;102871.88;5118713;27;20110;-68
2021/11/19 10:29:50;;;;;;;45.53;30.50;;;;;;;14.22;90.19;102870.84;5115957;27;20027;-68
2021/11/19 10:32:20;;;;;;;45.58;29.67;;;;;;;14.78;83.81;102870.22;5116524;27;20031;-68
2021/11/19 10:34:45;;;;;;;42.08;29.17;;;;;;;15.12;81.52;102878.84;5112733;27;20055;-69
2021/11/19 10:37:36;;;;;;;41.83;27.08;;;;;;;15.18;80.26;102878.06;5115612;27;20479;-69
2021/11/19 10:40:31;;;;;;;38.90;25.48;;;;;;;14.96;82.82;102883.00;5116008;27;20031;-70
2021/11/19 10:43:27;;;;;;;41.30;26.30;;;;;;;14.61;82.34;102881.44;5115237;27;20096;-72
2021/11/19 10:46:18;;;;;;;40.55;26.45;;;;;;;14.06;84.37;102874.94;5119584;27;20030;-72
2021/11/19 10:49:17;;;;;;;42.33;27.83;;;;;;;13.77;87.36;102873.44;5128308;27;20023;-74
2021/11/19 10:51:45;;;;;;;44.17;28.83;;;;;;;13.39;91.02;102873.38;5119482;27;20388;-73
2021/11/19 10:54:29;;;;;;;42.45;28.00;;;;;;;13.30;92.84;102873.13;5114363;27;20015;-70
2021/11/19 10:57:16;;;;;;;42.10;27.55;;;;;;;13.00;92.95;102871.47;5113208;27;20026;-65
2021/11/19 11:00:01;;;;;;;42.35;27.45;;;;;;;12.75;95.68;102871.69;5115132;27;20049;-71
2021/11/19 11:02:37;;;;;;;42.88;27.70;;;;;;;12.62;99.15;102879.28;5113213;27;20034;-70
2021/11/19 11:05:22;;;;;;;42.67;27.98;;;;;;;12.42;100.00;102873.44;5119082;27;20367;-73
2021/11/19 11:08:25;;;;;;;42.47;29.08;;;;;;;12.31;100.00;102880.16;5117453;27;20023;-70
2021/11/19 11:10:52;;;;;;;43.75;29.02;;;;;;;12.10;100.00;102876.03;5030806;28;20095;-72
2021/11/19 11:13:25;;;;;;;47.10;31.70;;;;;;;12.06;100.00;102871.47;5031041;28;20038;-73
2021/11/19 11:15:52;;;;;;;46.63;31.70;;;;;;;11.95;100.00;102875.53;5030295;28;20045;-73
2021/11/19 11:18:24;;;;;;;45.63;30.27;;;;;;;11.91;100.00;102871.88;5030734;28;20038;-73
2021/11/19 11:20:52;;;;;;;45.95;30.27;;;;;;;11.99;100.00;102865.06;5030892;28;20395;-74
2021/11/19 11:23:39;;;;;;;47.17;31.27;;;;;;;12.08;100.00;102866.22;5030559;28;20132;-72
2021/11/19 11:26:49;;;;;;;47.80;30.80;;;;;;;12.13;100.00;102873.47;5027936;28;20045;-73